createdAt,value
2018-01-03T00:02:00.392Z,97.22
2018-01-03T00:04:27.793Z,97.18
2018-01-03T00:06:55.553Z,97.20
2018-01-03T00:09:22.949Z,97.29
2018-01-03T00:11:50.369Z,97.03
2018-01-03T00:14:17.778Z,97.04
2018-01-03T00:16:45.181Z,97.17
2018-01-03T00:19:12.593Z,97.00
2018-01-03T00:21:40.006Z,97.11
2018-01-03T00:24:07.420Z,97.38
2018-01-03T00:26:34.824Z,97.69
2018-01-03T00:29:02.236Z,97.58
2018-01-03T00:31:29.648Z,97.51
2018-01-03T00:33:57.061Z,97.38
2018-01-03T00:36:24.476Z,97.48
2018-01-03T00:38:51.890Z,97.42
2018-01-03T00:41:19.302Z,97.20
2018-01-03T00:43:46.720Z,97.12
2018-01-03T00:46:14.139Z,97.11
2018-01-03T00:48:41.532Z,97.00
2018-01-03T00:51:08.936Z,96.95
2018-01-03T00:53:36.364Z,96.78
2018-01-03T00:56:03.785Z,96.72
2018-01-03T00:58:31.205Z,96.69
2018-01-03T01:00:58.628Z,96.79
2018-01-03T01:03:26.047Z,96.83
2018-01-03T01:05:53.476Z,96.83
2018-01-03T01:08:20.893Z,96.81
2018-01-03T01:10:48.314Z,96.65
2018-01-03T01:13:15.713Z,96.78
2018-01-03T01:15:43.143Z,96.69
2018-01-03T01:18:10.560Z,96.91
2018-01-03T01:20:37.988Z,96.84
2018-01-03T01:23:05.413Z,96.76
2018-01-03T01:25:32.828Z,96.76
2018-01-03T01:28:00.244Z,96.94
2018-01-03T01:30:27.645Z,96.94
2018-01-03T01:32:55.077Z,96.86
2018-01-03T01:35:22.484Z,96.89
2018-01-03T01:37:49.915Z,96.62
2018-01-03T01:40:17.324Z,96.88
2018-01-03T01:42:44.733Z,96.92
2018-01-03T01:45:12.144Z,96.96
2018-01-03T01:47:39.552Z,97.09
2018-01-03T01:50:06.961Z,97.20
2018-01-03T01:52:34.364Z,97.04
2018-01-03T01:55:01.783Z,96.87
2018-01-03T01:57:29.188Z,96.94
2018-01-03T01:59:56.595Z,96.83
2018-01-03T02:02:23.996Z,96.80
2018-01-03T02:04:51.403Z,97.08
2018-01-03T02:07:18.809Z,97.11
2018-01-03T02:09:46.227Z,97.09
2018-01-03T02:12:13.648Z,97.63
2018-01-03T02:14:41.048Z,98.00
2018-01-03T02:17:08.453Z,98.26
2018-01-03T02:19:35.865Z,98.16
2018-01-03T02:22:03.280Z,98.34
2018-01-03T02:24:30.689Z,98.51
2018-01-03T02:26:58.096Z,98.75
2018-01-03T02:29:25.509Z,98.76
2018-01-03T02:31:52.913Z,99.10
2018-01-03T02:34:20.317Z,98.96
2018-01-03T02:36:47.728Z,99.21
2018-01-03T02:39:15.128Z,99.00
2018-01-03T02:41:42.543Z,99.05
2018-01-03T02:44:09.945Z,98.95
2018-01-03T02:46:37.355Z,99.20
2018-01-03T02:49:04.769Z,99.16
2018-01-03T02:51:32.177Z,99.19
2018-01-03T02:53:59.581Z,99.13
2018-01-03T02:56:27.000Z,99.12
2018-01-03T02:58:54.418Z,99.30
2018-01-03T03:01:21.844Z,99.44
2018-01-03T03:03:49.251Z,99.62
2018-01-03T03:06:16.653Z,99.54
2018-01-03T03:08:44.064Z,99.69
2018-01-03T03:11:11.475Z,99.52
2018-01-03T03:13:38.886Z,99.28
2018-01-03T03:16:06.304Z,99.29
2018-01-03T03:18:33.696Z,99.45
2018-01-03T03:21:01.108Z,99.48
2018-01-03T03:23:28.512Z,99.38
2018-01-03T03:25:55.928Z,99.22
2018-01-03T03:28:23.332Z,99.11
2018-01-03T03:30:50.728Z,99.17
2018-01-03T03:33:18.136Z,99.41
2018-01-03T03:35:45.542Z,99.39
2018-01-03T03:38:12.960Z,99.15
2018-01-03T03:40:40.364Z,99.49
2018-01-03T03:43:07.773Z,99.90
2018-01-03T03:45:35.198Z,99.52
2018-01-03T03:48:02.601Z,99.62
2018-01-03T03:50:30.018Z,99.58
2018-01-03T03:52:57.428Z,99.27
2018-01-03T03:55:24.837Z,99.13
2018-01-03T03:57:52.253Z,99.43
2018-01-03T04:00:19.664Z,99.37
2018-01-03T04:02:47.078Z,99.13
2018-01-03T04:05:14.485Z,99.09
2018-01-03T04:07:41.902Z,99.66
2018-01-03T04:10:09.317Z,100.00
2018-01-03T04:12:36.738Z,100.00
2018-01-03T04:15:04.171Z,100.00
2018-01-03T04:17:31.603Z,100.00
2018-01-03T04:19:59.033Z,100.00
2018-01-03T04:22:26.469Z,100.00
2018-01-03T04:24:53.889Z,100.00
2018-01-03T04:27:21.317Z,100.00
2018-01-03T04:29:48.724Z,100.00
2018-01-03T04:32:16.157Z,100.00
2018-01-03T04:34:43.594Z,100.00
2018-01-03T04:37:11.029Z,100.00
2018-01-03T04:39:38.456Z,100.00
2018-01-03T04:42:05.868Z,97.89
2018-01-03T04:44:33.289Z,98.31
2018-01-03T04:47:00.705Z,97.70
2018-01-03T04:49:28.111Z,99.65
2018-01-03T04:51:55.536Z,98.89
2018-01-03T04:54:22.944Z,99.24
2018-01-03T04:56:50.365Z,98.52
2018-01-03T04:59:17.768Z,98.16
2018-01-03T05:01:45.181Z,95.54
2018-01-03T05:04:12.587Z,95.80
2018-01-03T05:06:39.989Z,96.17
2018-01-03T05:09:07.401Z,95.32
2018-01-03T05:11:34.808Z,96.03
2018-01-03T05:14:02.222Z,96.05
2018-01-03T05:16:29.632Z,96.08
2018-01-03T05:18:57.073Z,95.80
2018-01-03T05:21:24.477Z,96.52
2018-01-03T05:23:51.888Z,96.62
2018-01-03T05:26:19.304Z,97.05
2018-01-03T05:28:46.708Z,97.40
2018-01-03T05:31:14.121Z,97.57
2018-01-03T05:33:41.523Z,97.50
2018-01-03T05:36:08.947Z,96.20
2018-01-03T05:38:36.361Z,96.38
2018-01-03T05:41:03.757Z,96.03
2018-01-03T05:43:31.168Z,94.70
2018-01-03T05:45:58.581Z,94.28
2018-01-03T05:48:26.005Z,94.65
2018-01-03T05:50:53.417Z,94.37
2018-01-03T05:53:20.828Z,93.56
2018-01-03T05:55:48.236Z,94.19
2018-01-03T05:58:15.644Z,93.36
2018-01-03T06:00:43.054Z,92.72
2018-01-03T06:03:10.472Z,91.38
2018-01-03T06:05:37.872Z,90.71
2018-01-03T06:08:05.276Z,90.54
2018-01-03T06:10:32.697Z,90.25
2018-01-03T06:13:00.118Z,90.98
2018-01-03T06:15:27.531Z,90.60
2018-01-03T06:17:54.960Z,89.12
2018-01-03T06:20:22.368Z,88.84
2018-01-03T06:22:49.768Z,88.53
2018-01-03T06:25:17.205Z,87.53
2018-01-03T06:27:44.617Z,85.78
2018-01-03T06:30:12.046Z,86.29
2018-01-03T06:32:39.460Z,86.01
2018-01-03T06:35:06.877Z,84.86
2018-01-03T06:37:34.284Z,84.71
2018-01-03T06:40:01.688Z,84.53
2018-01-03T06:42:29.109Z,85.61
2018-01-03T06:44:56.523Z,84.14
2018-01-03T06:47:23.932Z,85.30
2018-01-03T06:49:51.360Z,83.99
2018-01-03T06:52:18.766Z,84.36
2018-01-03T06:54:46.193Z,84.72
2018-01-03T06:57:13.605Z,85.33
2018-01-03T06:59:41.012Z,86.30
2018-01-03T07:02:08.456Z,84.35
2018-01-03T07:04:35.879Z,84.14
2018-01-03T07:07:03.288Z,84.62
2018-01-03T07:09:30.694Z,83.80
2018-01-03T07:11:58.133Z,83.94
2018-01-03T07:14:25.557Z,83.28
2018-01-03T07:16:52.980Z,82.65
2018-01-03T07:19:20.413Z,81.50
2018-01-03T07:21:47.808Z,81.17
2018-01-03T07:24:15.225Z,80.41
2018-01-03T07:26:42.640Z,78.22
2018-01-03T07:29:11.043Z,78.10
2018-01-03T07:31:38.468Z,78.66
2018-01-03T07:34:05.884Z,77.85
2018-01-03T07:36:33.300Z,76.91
2018-01-03T07:39:00.709Z,75.89
2018-01-03T07:41:28.128Z,76.53
2018-01-03T07:43:55.532Z,75.34
2018-01-03T07:46:22.941Z,74.95
2018-01-03T07:48:50.356Z,74.62
2018-01-03T07:51:17.765Z,74.70
2018-01-03T07:53:45.172Z,80.75
2018-01-03T07:56:12.574Z,85.95
2018-01-03T07:58:40.033Z,88.02
2018-01-03T08:01:07.438Z,89.89
2018-01-03T08:03:34.853Z,89.30
2018-01-03T08:06:03.283Z,89.44
2018-01-03T08:08:30.700Z,89.99
2018-01-03T08:10:58.100Z,91.58
2018-01-03T08:13:25.506Z,91.30
2018-01-03T08:15:52.944Z,91.86
2018-01-03T08:18:20.400Z,90.75
2018-01-03T08:20:47.804Z,90.19
2018-01-03T08:23:15.243Z,90.63
2018-01-03T08:25:43.574Z,89.98
2018-01-03T08:28:10.997Z,91.00
2018-01-03T08:30:38.441Z,90.99
2018-01-03T08:33:05.877Z,90.74
2018-01-03T08:35:33.306Z,92.26
2018-01-03T08:38:00.808Z,92.95
2018-01-03T08:40:28.189Z,92.43
2018-01-03T08:42:56.600Z,92.69
2018-01-03T08:45:24.006Z,91.15
2018-01-03T08:47:51.430Z,92.89
2018-01-03T08:50:18.837Z,92.94
2018-01-03T08:52:46.264Z,92.74
2018-01-03T08:55:13.685Z,92.42
2018-01-03T08:57:41.119Z,92.90
2018-01-03T09:00:08.529Z,93.44
2018-01-03T09:02:35.937Z,93.71
2018-01-03T09:05:03.349Z,92.82
2018-01-03T09:07:31.801Z,92.58
2018-01-03T09:09:59.205Z,90.45
2018-01-03T09:12:26.613Z,90.70
2018-01-03T09:14:54.016Z,90.60
2018-01-03T09:17:21.444Z,90.12
2018-01-03T09:19:52.105Z,90.48
2018-01-03T09:22:19.565Z,88.70
2018-01-03T09:24:46.997Z,87.10
2018-01-03T09:27:14.391Z,87.09
2018-01-03T09:29:42.794Z,84.98
2018-01-03T09:32:10.212Z,83.02
2018-01-03T09:34:37.641Z,85.07
2018-01-03T09:37:05.057Z,85.34
2018-01-03T09:39:32.479Z,83.96
2018-01-03T09:41:59.898Z,87.30
2018-01-03T09:44:27.302Z,85.11
2018-01-03T09:46:54.709Z,86.10
2018-01-03T09:49:22.134Z,86.38
2018-01-03T09:51:49.537Z,86.61
2018-01-03T09:54:16.962Z,86.27
2018-01-03T09:56:44.400Z,86.26
2018-01-03T09:59:11.818Z,86.81
2018-01-03T10:01:39.235Z,86.60
2018-01-03T10:04:06.689Z,87.14
2018-01-03T10:06:34.104Z,87.31
2018-01-03T10:09:01.520Z,86.16
2018-01-03T10:11:28.965Z,87.09
2018-01-03T10:13:56.379Z,84.82
2018-01-03T10:16:23.816Z,83.96
2018-01-03T10:18:51.228Z,83.01
2018-01-03T10:21:18.669Z,83.75
2018-01-03T10:23:46.147Z,79.97
2018-01-03T10:26:13.663Z,80.34
2018-01-03T10:28:41.067Z,80.18
2018-01-03T10:31:08.488Z,78.57
2018-01-03T10:33:35.900Z,77.21
2018-01-03T10:36:03.343Z,77.66
2018-01-03T10:38:31.582Z,77.29
2018-01-03T10:40:59.013Z,75.72
2018-01-03T10:43:26.429Z,75.33
2018-01-03T10:45:53.828Z,73.99
2018-01-03T10:48:21.240Z,75.23
2018-01-03T10:50:49.633Z,74.85
2018-01-03T10:53:17.060Z,74.80
2018-01-03T10:55:44.472Z,73.99
2018-01-03T10:58:11.872Z,75.20
2018-01-03T11:00:39.280Z,72.75
2018-01-03T11:03:06.699Z,73.38
2018-01-03T11:05:34.128Z,73.40
2018-01-03T11:08:01.529Z,71.55
2018-01-03T11:10:28.940Z,72.59
2018-01-03T11:12:56.348Z,70.57
2018-01-03T11:15:23.750Z,71.05
2018-01-03T11:17:51.152Z,70.64
2018-01-03T11:20:18.568Z,70.34
2018-01-03T11:22:46.677Z,71.15
2018-01-03T11:25:14.094Z,70.31
2018-01-03T11:27:41.492Z,71.50
2018-01-03T11:30:08.910Z,72.70
2018-01-03T11:32:36.346Z,72.02
2018-01-03T11:35:03.749Z,72.14
2018-01-03T11:37:31.176Z,73.41
2018-01-03T11:39:58.589Z,74.01
2018-01-03T11:42:26.001Z,75.28
2018-01-03T11:44:53.404Z,75.34
2018-01-03T11:47:20.820Z,77.11
2018-01-03T11:49:48.224Z,76.93
2018-01-03T11:52:15.636Z,77.90
2018-01-03T11:54:43.048Z,78.88
2018-01-03T11:57:10.450Z,78.48
2018-01-03T11:59:37.861Z,78.70
2018-01-03T12:02:05.264Z,78.89
2018-01-03T12:04:32.688Z,77.48
2018-01-03T12:07:00.089Z,78.66
2018-01-03T12:09:27.496Z,78.19
2018-01-03T12:11:54.925Z,77.91
2018-01-03T12:14:22.328Z,77.06
2018-01-03T12:16:49.740Z,77.53
2018-01-03T12:19:17.180Z,77.43
2018-01-03T12:21:44.593Z,76.84
2018-01-03T12:24:12.009Z,77.47
2018-01-03T12:26:39.417Z,77.35
2018-01-03T12:29:06.826Z,77.97
2018-01-03T12:31:34.228Z,78.68
2018-01-03T12:34:01.650Z,79.48
2018-01-03T12:36:29.079Z,79.86
2018-01-03T12:38:56.509Z,81.99
2018-01-03T12:41:23.926Z,83.22
2018-01-03T12:43:51.341Z,83.59
2018-01-03T12:46:19.349Z,84.63
2018-01-03T12:48:46.786Z,84.20
2018-01-03T12:51:14.193Z,84.41
2018-01-03T12:53:41.612Z,84.74
2018-01-03T12:56:09.030Z,83.91
2018-01-03T12:58:36.437Z,83.46
2018-01-03T13:01:03.837Z,80.09
2018-01-03T13:03:31.241Z,80.08
2018-01-03T13:05:58.640Z,80.57
2018-01-03T13:08:26.053Z,80.20
2018-01-03T13:10:53.448Z,78.51
2018-01-03T13:13:20.870Z,78.26
2018-01-03T13:15:48.277Z,79.16
2018-01-03T13:18:15.688Z,78.35
2018-01-03T13:20:43.117Z,78.71
2018-01-03T13:23:10.517Z,78.58
2018-01-03T13:25:37.921Z,77.88
2018-01-03T13:28:05.329Z,77.97
2018-01-03T13:30:32.754Z,78.53
2018-01-03T13:33:00.160Z,80.04
2018-01-03T13:35:27.561Z,80.27
2018-01-03T13:37:54.979Z,81.13
2018-01-03T13:40:22.382Z,81.26
2018-01-03T13:42:49.793Z,81.44
2018-01-03T13:45:17.210Z,79.88
2018-01-03T13:47:44.612Z,79.61
2018-01-03T13:50:12.275Z,78.67
2018-01-03T13:52:39.701Z,78.19
2018-01-03T13:55:07.117Z,78.71
2018-01-03T13:57:34.548Z,79.13
2018-01-03T14:00:02.055Z,78.12
2018-01-03T14:02:29.473Z,77.99
2018-01-03T14:04:57.120Z,77.05
2018-01-03T14:07:24.612Z,76.02
2018-01-03T14:09:52.072Z,76.68
2018-01-03T14:12:19.518Z,76.44
2018-01-03T14:14:46.959Z,76.60
2018-01-03T14:17:14.369Z,75.78
2018-01-03T14:19:41.796Z,76.60
2018-01-03T14:22:09.205Z,77.15
2018-01-03T14:24:36.614Z,77.94
2018-01-03T14:27:04.061Z,78.67
2018-01-03T14:29:31.467Z,79.84
2018-01-03T14:31:58.906Z,79.66
2018-01-03T14:34:26.336Z,80.20
2018-01-03T14:36:53.735Z,80.67
2018-01-03T14:39:21.150Z,80.67
2018-01-03T14:41:48.553Z,81.05
2018-01-03T14:44:15.962Z,80.93
2018-01-03T14:46:43.398Z,80.97
2018-01-03T14:49:10.800Z,80.56
2018-01-03T14:51:38.220Z,79.85
2018-01-03T14:54:05.616Z,79.68
2018-01-03T14:56:33.042Z,79.03
2018-01-03T14:59:00.465Z,79.12
2018-01-03T15:01:27.876Z,78.53
2018-01-03T15:03:55.310Z,78.44
2018-01-03T15:06:22.717Z,78.27
2018-01-03T15:08:50.124Z,78.21
2018-01-03T15:11:17.564Z,79.04
2018-01-03T15:13:44.973Z,80.14
2018-01-03T15:16:12.372Z,80.76
2018-01-03T15:18:39.784Z,81.04
2018-01-03T15:21:07.193Z,83.59
2018-01-03T15:23:34.597Z,84.47
2018-01-03T15:26:02.004Z,85.22
2018-01-03T15:28:29.438Z,85.31
2018-01-03T15:30:56.913Z,85.21
2018-01-03T15:33:24.321Z,85.04
2018-01-03T15:35:51.741Z,85.23
2018-01-03T15:38:19.152Z,85.03
2018-01-03T15:40:46.576Z,83.83
2018-01-03T15:43:13.994Z,83.50
2018-01-03T15:45:41.461Z,82.56
2018-01-03T15:48:08.897Z,81.49
2018-01-03T15:50:36.323Z,81.87
2018-01-03T15:53:03.716Z,82.21
2018-01-03T15:55:31.137Z,83.18
2018-01-03T15:57:58.565Z,82.91
2018-01-03T16:00:25.961Z,83.20
2018-01-03T16:02:53.361Z,83.53
2018-01-03T16:05:20.777Z,84.12
2018-01-03T16:07:48.177Z,83.88
2018-01-03T16:10:15.581Z,83.31
2018-01-03T16:12:43.013Z,83.45
2018-01-03T16:15:10.440Z,81.80
2018-01-03T16:17:37.885Z,82.15
2018-01-03T16:20:05.297Z,81.67
2018-01-03T16:22:33.744Z,82.27
2018-01-03T16:25:01.178Z,83.56
2018-01-03T16:27:28.581Z,83.52
2018-01-03T16:29:56.093Z,83.92
2018-01-03T16:32:23.537Z,84.24
2018-01-03T16:34:50.954Z,84.26
2018-01-03T16:37:18.497Z,84.63
2018-01-03T16:39:45.921Z,85.22
2018-01-03T16:42:13.366Z,86.31
2018-01-03T16:44:40.825Z,86.70
2018-01-03T16:47:08.280Z,86.30
2018-01-03T16:49:35.737Z,87.79
2018-01-03T16:52:08.713Z,88.70
2018-01-03T16:54:36.109Z,89.25
2018-01-03T16:57:03.562Z,89.77
2018-01-03T16:59:30.988Z,89.59
2018-01-03T17:01:58.412Z,89.97
2018-01-03T17:04:25.832Z,89.38
2018-01-03T17:06:53.237Z,89.66
2018-01-03T17:09:20.657Z,88.62
2018-01-03T17:11:48.065Z,88.26
2018-01-03T17:14:15.473Z,86.93
2018-01-03T17:16:42.890Z,85.68
2018-01-03T17:19:10.292Z,85.06
2018-01-03T17:21:37.704Z,84.19
2018-01-03T17:24:05.109Z,83.06
2018-01-03T17:26:32.513Z,82.98
2018-01-03T17:28:59.933Z,82.41
2018-01-03T17:31:27.334Z,82.77
2018-01-03T17:33:54.746Z,81.60
2018-01-03T17:36:22.149Z,81.42
2018-01-03T17:38:49.613Z,81.56
2018-01-03T17:41:17.033Z,81.54
2018-01-03T17:43:44.442Z,80.80
2018-01-03T17:46:11.853Z,81.20
2018-01-03T17:48:39.277Z,81.35
2018-01-03T17:51:09.550Z,81.47
2018-01-03T17:53:37.441Z,83.26
2018-01-03T17:56:04.998Z,86.05
2018-01-03T17:58:32.421Z,87.70
2018-01-03T18:00:59.979Z,87.60
2018-01-03T18:06:08.757Z,88.06
2018-01-03T18:08:36.182Z,87.85
2018-01-03T18:11:05.058Z,87.44
2018-01-03T18:13:32.475Z,87.42
2018-01-03T18:15:59.958Z,87.60
2018-01-03T18:18:27.370Z,87.25
2018-01-03T18:20:54.789Z,86.81
2018-01-03T18:23:22.209Z,86.09
2018-01-03T18:25:49.638Z,86.06
2018-01-03T18:28:17.046Z,86.26
2018-01-03T18:30:44.483Z,85.18
2018-01-03T18:35:57.540Z,85.16
2018-01-03T18:38:24.936Z,85.11
2018-01-03T18:40:52.340Z,85.11
2018-01-03T18:43:19.758Z,85.00
2018-01-03T18:45:47.165Z,84.15
2018-01-03T18:48:14.573Z,85.04
2018-01-03T18:50:41.977Z,84.14
2018-01-03T18:53:09.400Z,84.50
2018-01-03T18:55:36.800Z,84.58
2018-01-03T18:58:04.208Z,84.41
2018-01-03T19:00:31.622Z,84.31
2018-01-03T19:02:59.028Z,83.79
2018-01-03T19:05:26.441Z,84.09
2018-01-03T19:07:53.845Z,82.61
2018-01-03T19:10:22.195Z,81.81
2018-01-03T19:12:49.615Z,81.24
2018-01-03T19:15:17.098Z,81.40
2018-01-03T19:17:44.521Z,81.27
2018-01-03T19:20:11.919Z,81.63
2018-01-03T19:22:39.354Z,80.67
2018-01-03T19:25:06.842Z,80.70
2018-01-03T19:27:34.251Z,82.25
2018-01-03T19:30:01.662Z,82.70
2018-01-03T19:32:29.088Z,83.53
2018-01-03T19:34:56.752Z,84.93
2018-01-03T19:37:24.161Z,87.05
2018-01-03T19:39:51.581Z,88.59
2018-01-03T19:42:19.000Z,89.71
2018-01-03T19:44:46.427Z,90.69
2018-01-03T19:47:13.858Z,92.12
2018-01-03T19:49:41.274Z,92.67
2018-01-03T19:52:08.689Z,94.15
2018-01-03T19:54:36.115Z,94.61
2018-01-03T19:57:03.523Z,94.77
2018-01-03T19:59:30.953Z,94.84
2018-01-03T20:01:58.390Z,94.84
2018-01-03T20:04:25.797Z,94.74
2018-01-03T20:06:53.258Z,95.05
2018-01-03T20:09:20.680Z,93.93
2018-01-03T20:11:48.145Z,92.58
2018-01-03T20:14:15.584Z,92.59
2018-01-03T20:16:43.045Z,93.53
2018-01-03T20:19:10.474Z,91.82
2018-01-03T20:21:37.905Z,91.88
2018-01-03T20:24:05.322Z,90.58
2018-01-03T20:26:32.750Z,90.20
2018-01-03T20:29:00.180Z,91.06
2018-01-03T20:31:27.668Z,91.07
2018-01-03T20:33:55.204Z,90.74
2018-01-03T20:36:22.626Z,89.73
2018-01-03T20:38:50.062Z,90.75
2018-01-03T20:41:17.504Z,91.33
2018-01-03T20:43:44.933Z,90.22
2018-01-03T20:46:12.347Z,90.69
2018-01-03T20:48:39.761Z,90.59
2018-01-03T20:51:07.189Z,90.38
2018-01-03T20:53:34.589Z,89.76
2018-01-03T20:56:01.997Z,90.25
2018-01-03T20:58:29.404Z,89.24
2018-01-03T21:00:56.829Z,87.29
2018-01-03T21:03:24.245Z,87.83
2018-01-03T21:05:51.670Z,87.35
2018-01-03T21:08:19.101Z,85.79
2018-01-03T21:10:46.518Z,87.25
2018-01-03T21:13:13.926Z,86.61
2018-01-03T21:15:41.341Z,87.30
2018-01-03T21:18:08.798Z,88.80
2018-01-03T21:20:36.199Z,89.04
2018-01-03T21:23:03.602Z,90.26
2018-01-03T21:25:31.034Z,90.58
2018-01-03T21:27:58.437Z,91.07
2018-01-03T21:30:25.842Z,91.77
2018-01-03T21:32:53.248Z,92.50
2018-01-03T21:35:20.653Z,93.87
2018-01-03T21:37:48.064Z,94.41
2018-01-03T21:40:15.484Z,94.43
2018-01-03T21:42:42.918Z,94.84
2018-01-03T21:45:10.312Z,94.59
2018-01-03T21:47:37.721Z,94.69
2018-01-03T21:50:05.137Z,94.85
2018-01-03T21:52:32.711Z,94.97
2018-01-03T21:55:00.112Z,94.25
2018-01-03T21:57:27.520Z,93.34
2018-01-03T21:59:54.949Z,93.27
2018-01-03T22:02:22.357Z,93.47
2018-01-03T22:04:49.768Z,93.02
2018-01-03T22:07:17.203Z,92.63
2018-01-03T22:09:44.616Z,92.32
2018-01-03T22:12:12.036Z,91.84
2018-01-03T22:14:39.432Z,91.71
2018-01-03T22:17:06.857Z,90.25
2018-01-03T22:19:34.264Z,90.11
2018-01-03T22:22:01.669Z,89.61
2018-01-03T22:24:29.086Z,88.02
2018-01-03T22:26:56.484Z,88.15
2018-01-03T22:29:23.894Z,87.70
2018-01-03T22:31:51.302Z,87.00
2018-01-03T22:34:18.725Z,87.56
2018-01-03T22:36:46.133Z,86.31
2018-01-03T22:39:13.542Z,87.18
2018-01-03T22:41:40.957Z,86.67
2018-01-03T22:44:08.357Z,86.24
2018-01-03T22:46:35.769Z,85.36
2018-01-03T22:49:03.175Z,85.83
2018-01-03T22:51:30.598Z,84.77
2018-01-03T22:53:58.029Z,84.26
2018-01-03T22:56:25.426Z,83.95
2018-01-03T22:58:52.840Z,84.11
2018-01-03T23:01:20.290Z,84.45
2018-01-03T23:03:47.713Z,83.69
2018-01-03T23:06:15.125Z,84.02
2018-01-03T23:08:42.527Z,83.67
2018-01-03T23:11:09.941Z,84.21
2018-01-03T23:13:37.344Z,83.40
2018-01-03T23:16:04.761Z,83.28
2018-01-03T23:18:32.476Z,82.55
2018-01-03T23:20:59.876Z,82.58
2018-01-03T23:23:27.297Z,82.14
2018-01-03T23:25:54.702Z,82.04
2018-01-03T23:28:22.117Z,81.85
2018-01-03T23:30:49.530Z,82.74
2018-01-03T23:33:16.930Z,82.38
2018-01-03T23:35:44.357Z,82.23
2018-01-03T23:38:11.761Z,82.01
2018-01-03T23:40:39.193Z,82.07
2018-01-03T23:43:06.593Z,81.26
2018-01-03T23:45:33.997Z,80.55
2018-01-03T23:48:01.404Z,80.70
2018-01-03T23:50:28.814Z,80.49
2018-01-03T23:52:56.222Z,80.91
2018-01-03T23:55:23.630Z,80.10
2018-01-03T23:57:51.029Z,80.08
